sensor_id;sensor_type;location;lat;lon;timestamp;temperature;humidity
47600;DHT22;33323;52.124;6.018;2023-07-22T00:00:41;14.30;99.90
47600;DHT22;33323;52.124;6.018;2023-07-22T00:03:08;14.30;99.90
47600;DHT22;33323;52.124;6.018;2023-07-22T00:05:35;14.30;99.90
47600;DHT22;33323;52.124;6.018;2023-07-22T00:08:02;14.30;99.90
47600;DHT22;33323;52.124;6.018;2023-07-22T00:10:29;14.30;99.90
47600;DHT22;33323;52.124;6.018;2023-07-22T00:12:56;14.40;99.90
47600;DHT22;33323;52.124;6.018;2023-07-22T00:15:23;14.20;99.90
47600;DHT22;33323;52.124;6.018;2023-07-22T00:17:51;14.30;99.90
47600;DHT22;33323;52.124;6.018;2023-07-22T00:20:19;14.20;99.90
47600;DHT22;33323;52.124;6.018;2023-07-22T00:22:47;14.20;99.90
47600;DHT22;33323;52.124;6.018;2023-07-22T00:25:14;14.10;99.90
47600;DHT22;33323;52.124;6.018;2023-07-22T00:27:42;14.10;99.90
47600;DHT22;33323;52.124;6.018;2023-07-22T00:30:09;14.20;99.90
47600;DHT22;33323;52.124;6.018;2023-07-22T00:32:37;14.10;99.90
47600;DHT22;33323;52.124;6.018;2023-07-22T00:35:05;14.00;99.90
47600;DHT22;33323;52.124;6.018;2023-07-22T00:37:33;14.00;99.90
47600;DHT22;33323;52.124;6.018;2023-07-22T00:40:01;14.10;99.90
47600;DHT22;33323;52.124;6.018;2023-07-22T00:42:32;14.00;99.90
47600;DHT22;33323;52.124;6.018;2023-07-22T00:44:59;13.90;99.90
47600;DHT22;33323;52.124;6.018;2023-07-22T00:47:26;13.80;99.90
47600;DHT22;33323;52.124;6.018;2023-07-22T00:49:54;13.80;99.90
47600;DHT22;33323;52.124;6.018;2023-07-22T00:52:22;13.80;99.90
47600;DHT22;33323;52.124;6.018;2023-07-22T00:54:49;13.80;99.90
47600;DHT22;33323;52.124;6.018;2023-07-22T00:57:17;13.70;99.90
47600;DHT22;33323;52.124;6.018;2023-07-22T00:59:45;13.70;99.90
47600;DHT22;33323;52.124;6.018;2023-07-22T01:02:12;13.70;99.90
47600;DHT22;33323;52.124;6.018;2023-07-22T01:04:40;13.70;99.90
47600;DHT22;33323;52.124;6.018;2023-07-22T01:07:07;13.70;99.90
47600;DHT22;33323;52.124;6.018;2023-07-22T01:09:42;13.70;99.90
47600;DHT22;33323;52.124;6.018;2023-07-22T01:12:11;13.70;99.90
47600;DHT22;33323;52.124;6.018;2023-07-22T01:14:40;13.70;99.90
47600;DHT22;33323;52.124;6.018;2023-07-22T01:17:09;13.70;99.90
47600;DHT22;33323;52.124;6.018;2023-07-22T01:19:38;13.70;99.90
47600;DHT22;33323;52.124;6.018;2023-07-22T01:22:06;13.60;99.90
47600;DHT22;33323;52.124;6.018;2023-07-22T01:24:35;13.60;99.90
47600;DHT22;33323;52.124;6.018;2023-07-22T01:27:03;13.60;99.90
47600;DHT22;33323;52.124;6.018;2023-07-22T01:29:34;13.60;99.90
47600;DHT22;33323;52.124;6.018;2023-07-22T01:32:02;13.70;99.90
47600;DHT22;33323;52.124;6.018;2023-07-22T01:34:30;13.60;99.90
47600;DHT22;33323;52.124;6.018;2023-07-22T01:36:58;13.60;99.90
47600;DHT22;33323;52.124;6.018;2023-07-22T01:39:26;13.50;99.90
47600;DHT22;33323;52.124;6.018;2023-07-22T01:41:54;13.40;99.90
47600;DHT22;33323;52.124;6.018;2023-07-22T01:44:21;13.40;99.90
47600;DHT22;33323;52.124;6.018;2023-07-22T01:46:48;13.40;99.90
47600;DHT22;33323;52.124;6.018;2023-07-22T01:49:15;13.30;99.90
47600;DHT22;33323;52.124;6.018;2023-07-22T01:51:43;13.30;99.90
47600;DHT22;33323;52.124;6.018;2023-07-22T01:54:11;13.30;99.90
47600;DHT22;33323;52.124;6.018;2023-07-22T01:56:39;13.30;99.90
47600;DHT22;33323;52.124;6.018;2023-07-22T01:59:06;13.30;99.90
47600;DHT22;33323;52.124;6.018;2023-07-22T02:01:33;13.30;99.90
47600;DHT22;33323;52.124;6.018;2023-07-22T02:04:00;13.30;99.90
47600;DHT22;33323;52.124;6.018;2023-07-22T02:06:28;13.30;99.90
47600;DHT22;33323;52.124;6.018;2023-07-22T02:08:56;13.30;99.90
47600;DHT22;33323;52.124;6.018;2023-07-22T02:11:23;13.30;99.90
47600;DHT22;33323;52.124;6.018;2023-07-22T02:13:50;13.30;99.90
47600;DHT22;33323;52.124;6.018;2023-07-22T02:16:18;13.30;99.90
47600;DHT22;33323;52.124;6.018;2023-07-22T02:18:45;13.30;99.90
47600;DHT22;33323;52.124;6.018;2023-07-22T02:21:14;13.30;99.90
47600;DHT22;33323;52.124;6.018;2023-07-22T02:23:41;13.30;99.90
47600;DHT22;33323;52.124;6.018;2023-07-22T02:26:08;13.30;99.90
47600;DHT22;33323;52.124;6.018;2023-07-22T02:28:35;13.30;99.90
47600;DHT22;33323;52.124;6.018;2023-07-22T02:31:02;13.30;99.90
47600;DHT22;33323;52.124;6.018;2023-07-22T02:33:34;13.30;99.90
47600;DHT22;33323;52.124;6.018;2023-07-22T02:36:01;13.30;99.90
47600;DHT22;33323;52.124;6.018;2023-07-22T02:38:29;13.20;99.90
47600;DHT22;33323;52.124;6.018;2023-07-22T02:41:04;13.20;99.90
47600;DHT22;33323;52.124;6.018;2023-07-22T02:43:34;13.10;99.90
47600;DHT22;33323;52.124;6.018;2023-07-22T02:46:03;13.00;99.90
47600;DHT22;33323;52.124;6.018;2023-07-22T02:48:32;13.00;99.90
47600;DHT22;33323;52.124;6.018;2023-07-22T02:51:07;13.00;99.90
47600;DHT22;33323;52.124;6.018;2023-07-22T02:53:35;13.00;99.90
47600;DHT22;33323;52.124;6.018;2023-07-22T02:56:05;13.00;99.90
47600;DHT22;33323;52.124;6.018;2023-07-22T02:58:36;12.90;99.90
47600;DHT22;33323;52.124;6.018;2023-07-22T03:01:04;12.90;99.90
47600;DHT22;33323;52.124;6.018;2023-07-22T03:03:32;12.80;99.90
47600;DHT22;33323;52.124;6.018;2023-07-22T03:06:00;12.80;99.90
47600;DHT22;33323;52.124;6.018;2023-07-22T03:08:28;12.70;99.90
47600;DHT22;33323;52.124;6.018;2023-07-22T03:10:55;12.70;99.90
47600;DHT22;33323;52.124;6.018;2023-07-22T03:13:22;12.70;99.90
47600;DHT22;33323;52.124;6.018;2023-07-22T03:15:49;12.60;99.90
47600;DHT22;33323;52.124;6.018;2023-07-22T03:18:16;12.60;99.90
47600;DHT22;33323;52.124;6.018;2023-07-22T03:20:43;12.60;99.90
47600;DHT22;33323;52.124;6.018;2023-07-22T03:23:10;12.50;99.90
47600;DHT22;33323;52.124;6.018;2023-07-22T03:25:37;12.50;99.90
47600;DHT22;33323;52.124;6.018;2023-07-22T03:28:05;12.50;99.90
47600;DHT22;33323;52.124;6.018;2023-07-22T03:30:33;12.50;99.90
47600;DHT22;33323;52.124;6.018;2023-07-22T03:33:01;12.40;99.90
47600;DHT22;33323;52.124;6.018;2023-07-22T03:35:28;12.50;99.90
47600;DHT22;33323;52.124;6.018;2023-07-22T03:37:55;12.50;99.90
47600;DHT22;33323;52.124;6.018;2023-07-22T03:40:22;12.50;99.90
47600;DHT22;33323;52.124;6.018;2023-07-22T03:42:54;12.50;99.90
47600;DHT22;33323;52.124;6.018;2023-07-22T03:45:23;12.50;99.90
47600;DHT22;33323;52.124;6.018;2023-07-22T03:47:53;12.50;99.90
47600;DHT22;33323;52.124;6.018;2023-07-22T03:50:23;12.50;99.90
47600;DHT22;33323;52.124;6.018;2023-07-22T03:52:50;12.50;99.90
47600;DHT22;33323;52.124;6.018;2023-07-22T03:55:17;12.40;99.90
47600;DHT22;33323;52.124;6.018;2023-07-22T03:57:46;12.50;99.90
47600;DHT22;33323;52.124;6.018;2023-07-22T04:00:13;12.50;99.90
47600;DHT22;33323;52.124;6.018;2023-07-22T04:02:41;12.50;99.90
47600;DHT22;33323;52.124;6.018;2023-07-22T04:05:09;12.50;99.90
47600;DHT22;33323;52.124;6.018;2023-07-22T04:07:37;12.60;99.90
47600;DHT22;33323;52.124;6.018;2023-07-22T04:10:05;12.60;99.90
47600;DHT22;33323;52.124;6.018;2023-07-22T04:12:32;12.60;99.90
47600;DHT22;33323;52.124;6.018;2023-07-22T04:14:59;12.70;99.90
47600;DHT22;33323;52.124;6.018;2023-07-22T04:17:28;12.70;99.90
47600;DHT22;33323;52.124;6.018;2023-07-22T04:19:55;12.70;99.90
47600;DHT22;33323;52.124;6.018;2023-07-22T04:22:23;12.60;99.90
47600;DHT22;33323;52.124;6.018;2023-07-22T04:24:50;12.60;99.90
47600;DHT22;33323;52.124;6.018;2023-07-22T04:27:19;12.60;99.90
47600;DHT22;33323;52.124;6.018;2023-07-22T04:29:47;12.70;99.90
47600;DHT22;33323;52.124;6.018;2023-07-22T04:32:14;12.70;99.90
47600;DHT22;33323;52.124;6.018;2023-07-22T04:34:41;12.70;99.90
47600;DHT22;33323;52.124;6.018;2023-07-22T04:37:08;12.70;99.90
47600;DHT22;33323;52.124;6.018;2023-07-22T04:39:36;12.70;99.90
47600;DHT22;33323;52.124;6.018;2023-07-22T04:42:03;12.60;99.90
47600;DHT22;33323;52.124;6.018;2023-07-22T04:44:31;12.60;99.90
47600;DHT22;33323;52.124;6.018;2023-07-22T04:46:58;12.60;99.90
47600;DHT22;33323;52.124;6.018;2023-07-22T04:49:25;12.70;99.90
47600;DHT22;33323;52.124;6.018;2023-07-22T04:51:52;12.70;99.90
47600;DHT22;33323;52.124;6.018;2023-07-22T04:54:19;12.70;99.90
47600;DHT22;33323;52.124;6.018;2023-07-22T04:56:46;12.80;99.90
47600;DHT22;33323;52.124;6.018;2023-07-22T04:59:13;12.90;99.90
47600;DHT22;33323;52.124;6.018;2023-07-22T05:01:41;13.10;99.90
47600;DHT22;33323;52.124;6.018;2023-07-22T05:04:08;13.40;99.90
47600;DHT22;33323;52.124;6.018;2023-07-22T05:06:35;13.60;99.90
47600;DHT22;33323;52.124;6.018;2023-07-22T05:09:03;13.90;99.90
47600;DHT22;33323;52.124;6.018;2023-07-22T05:11:30;14.00;99.90
47600;DHT22;33323;52.124;6.018;2023-07-22T05:13:58;14.20;99.90
47600;DHT22;33323;52.124;6.018;2023-07-22T05:16:25;14.30;99.90
47600;DHT22;33323;52.124;6.018;2023-07-22T05:18:52;14.30;99.90
47600;DHT22;33323;52.124;6.018;2023-07-22T05:21:19;14.40;99.90
47600;DHT22;33323;52.124;6.018;2023-07-22T05:23:46;14.40;99.90
47600;DHT22;33323;52.124;6.018;2023-07-22T05:26:14;14.40;99.90
47600;DHT22;33323;52.124;6.018;2023-07-22T05:28:41;14.50;99.90
47600;DHT22;33323;52.124;6.018;2023-07-22T05:31:08;14.50;99.90
47600;DHT22;33323;52.124;6.018;2023-07-22T05:33:36;14.60;99.90
47600;DHT22;33323;52.124;6.018;2023-07-22T05:36:05;14.60;99.90
47600;DHT22;33323;52.124;6.018;2023-07-22T05:38:32;14.60;99.90
47600;DHT22;33323;52.124;6.018;2023-07-22T05:40:59;14.70;99.90
47600;DHT22;33323;52.124;6.018;2023-07-22T05:43:26;14.70;99.90
47600;DHT22;33323;52.124;6.018;2023-07-22T05:45:53;14.80;99.90
47600;DHT22;33323;52.124;6.018;2023-07-22T05:48:21;14.90;99.90
47600;DHT22;33323;52.124;6.018;2023-07-22T05:50:48;15.00;99.90
47600;DHT22;33323;52.124;6.018;2023-07-22T05:53:15;15.20;99.90
47600;DHT22;33323;52.124;6.018;2023-07-22T05:55:42;15.30;99.90
47600;DHT22;33323;52.124;6.018;2023-07-22T05:58:16;15.40;99.90
47600;DHT22;33323;52.124;6.018;2023-07-22T06:00:44;15.50;99.90
47600;DHT22;33323;52.124;6.018;2023-07-22T06:03:12;15.60;99.90
47600;DHT22;33323;52.124;6.018;2023-07-22T06:05:40;15.80;99.90
47600;DHT22;33323;52.124;6.018;2023-07-22T06:08:07;15.90;99.90
47600;DHT22;33323;52.124;6.018;2023-07-22T06:10:34;16.00;99.90
47600;DHT22;33323;52.124;6.018;2023-07-22T06:13:04;16.10;99.90
47600;DHT22;33323;52.124;6.018;2023-07-22T06:15:31;16.30;99.90
47600;DHT22;33323;52.124;6.018;2023-07-22T06:17:59;16.40;99.90
47600;DHT22;33323;52.124;6.018;2023-07-22T06:20:26;16.40;99.90
47600;DHT22;33323;52.124;6.018;2023-07-22T06:22:54;16.40;99.90
47600;DHT22;33323;52.124;6.018;2023-07-22T06:25:21;16.40;99.90
47600;DHT22;33323;52.124;6.018;2023-07-22T06:27:48;16.60;99.90
47600;DHT22;33323;52.124;6.018;2023-07-22T06:30:16;16.70;99.90
47600;DHT22;33323;52.124;6.018;2023-07-22T06:32:43;16.80;99.90
47600;DHT22;33323;52.124;6.018;2023-07-22T06:35:10;16.90;99.90
47600;DHT22;33323;52.124;6.018;2023-07-22T06:37:37;17.00;99.90
47600;DHT22;33323;52.124;6.018;2023-07-22T06:40:04;17.10;99.90
47600;DHT22;33323;52.124;6.018;2023-07-22T06:42:32;17.20;99.90
47600;DHT22;33323;52.124;6.018;2023-07-22T06:44:59;17.10;99.90
47600;DHT22;33323;52.124;6.018;2023-07-22T06:47:26;17.10;99.90
47600;DHT22;33323;52.124;6.018;2023-07-22T06:49:53;17.10;99.90
47600;DHT22;33323;52.124;6.018;2023-07-22T06:52:21;17.10;99.90
47600;DHT22;33323;52.124;6.018;2023-07-22T06:54:48;17.10;99.90
47600;DHT22;33323;52.124;6.018;2023-07-22T06:57:15;17.10;99.90
47600;DHT22;33323;52.124;6.018;2023-07-22T06:59:42;17.20;99.90
47600;DHT22;33323;52.124;6.018;2023-07-22T07:02:09;17.40;99.90
47600;DHT22;33323;52.124;6.018;2023-07-22T07:04:39;17.50;99.90
47600;DHT22;33323;52.124;6.018;2023-07-22T07:07:07;17.50;99.90
47600;DHT22;33323;52.124;6.018;2023-07-22T07:09:35;18.00;99.90
47600;DHT22;33323;52.124;6.018;2023-07-22T07:12:02;18.50;99.90
47600;DHT22;33323;52.124;6.018;2023-07-22T07:14:29;19.00;99.90
47600;DHT22;33323;52.124;6.018;2023-07-22T07:16:56;19.50;99.90
47600;DHT22;33323;52.124;6.018;2023-07-22T07:19:23;19.90;99.90
47600;DHT22;33323;52.124;6.018;2023-07-22T07:21:50;19.90;99.90
47600;DHT22;33323;52.124;6.018;2023-07-22T07:24:18;19.90;99.90
47600;DHT22;33323;52.124;6.018;2023-07-22T07:26:45;20.00;99.90
47600;DHT22;33323;52.124;6.018;2023-07-22T07:29:12;20.00;99.90
47600;DHT22;33323;52.124;6.018;2023-07-22T07:31:54;20.50;99.90
47600;DHT22;33323;52.124;6.018;2023-07-22T07:34:21;20.70;99.90
47600;DHT22;33323;52.124;6.018;2023-07-22T07:36:48;20.90;99.90
47600;DHT22;33323;52.124;6.018;2023-07-22T07:39:15;20.90;99.90
47600;DHT22;33323;52.124;6.018;2023-07-22T07:41:42;20.90;99.90
47600;DHT22;33323;52.124;6.018;2023-07-22T07:44:09;21.00;99.90
47600;DHT22;33323;52.124;6.018;2023-07-22T07:46:36;21.20;99.90
47600;DHT22;33323;52.124;6.018;2023-07-22T07:49:03;21.20;99.90
47600;DHT22;33323;52.124;6.018;2023-07-22T07:51:31;21.10;99.90
47600;DHT22;33323;52.124;6.018;2023-07-22T07:53:59;21.10;99.90
47600;DHT22;33323;52.124;6.018;2023-07-22T07:56:26;21.40;99.90
47600;DHT22;33323;52.124;6.018;2023-07-22T07:58:54;21.60;99.90
47600;DHT22;33323;52.124;6.018;2023-07-22T08:01:22;21.60;99.90
47600;DHT22;33323;52.124;6.018;2023-07-22T08:03:49;21.30;99.90
47600;DHT22;33323;52.124;6.018;2023-07-22T08:06:16;21.10;99.90
47600;DHT22;33323;52.124;6.018;2023-07-22T08:08:46;21.30;99.90
47600;DHT22;33323;52.124;6.018;2023-07-22T08:11:14;21.60;99.90
47600;DHT22;33323;52.124;6.018;2023-07-22T08:13:43;21.60;99.90
47600;DHT22;33323;52.124;6.018;2023-07-22T08:16:12;21.50;99.90
47600;DHT22;33323;52.124;6.018;2023-07-22T08:18:40;21.50;99.90
47600;DHT22;33323;52.124;6.018;2023-07-22T08:21:07;21.40;99.90
47600;DHT22;33323;52.124;6.018;2023-07-22T08:23:35;21.30;99.90
47600;DHT22;33323;52.124;6.018;2023-07-22T08:26:04;21.20;99.90
47600;DHT22;33323;52.124;6.018;2023-07-22T08:28:33;21.20;99.90
47600;DHT22;33323;52.124;6.018;2023-07-22T08:31:01;21.20;99.90
47600;DHT22;33323;52.124;6.018;2023-07-22T08:33:29;21.10;99.90
47600;DHT22;33323;52.124;6.018;2023-07-22T08:36:08;20.90;99.90
47600;DHT22;33323;52.124;6.018;2023-07-22T08:38:36;21.10;99.90
47600;DHT22;33323;52.124;6.018;2023-07-22T08:41:03;21.20;99.90
47600;DHT22;33323;52.124;6.018;2023-07-22T08:43:30;21.10;99.90
47600;DHT22;33323;52.124;6.018;2023-07-22T08:46:01;20.90;99.90
47600;DHT22;33323;52.124;6.018;2023-07-22T08:48:34;20.70;99.90
47600;DHT22;33323;52.124;6.018;2023-07-22T08:51:06;20.60;99.90
47600;DHT22;33323;52.124;6.018;2023-07-22T08:53:39;20.60;99.90
47600;DHT22;33323;52.124;6.018;2023-07-22T08:56:07;20.60;99.90
47600;DHT22;33323;52.124;6.018;2023-07-22T08:58:35;20.90;99.90
47600;DHT22;33323;52.124;6.018;2023-07-22T09:01:03;21.10;99.90
47600;DHT22;33323;52.124;6.018;2023-07-22T09:03:31;21.10;99.90
47600;DHT22;33323;52.124;6.018;2023-07-22T09:05:59;21.10;99.90
47600;DHT22;33323;52.124;6.018;2023-07-22T09:08:27;21.20;99.90
47600;DHT22;33323;52.124;6.018;2023-07-22T09:10:54;21.50;99.90
47600;DHT22;33323;52.124;6.018;2023-07-22T09:13:23;21.80;99.90
47600;DHT22;33323;52.124;6.018;2023-07-22T09:15:53;21.90;99.90
47600;DHT22;33323;52.124;6.018;2023-07-22T09:18:20;22.00;99.90
47600;DHT22;33323;52.124;6.018;2023-07-22T09:20:47;21.70;99.90
47600;DHT22;33323;52.124;6.018;2023-07-22T09:23:14;21.70;99.90
47600;DHT22;33323;52.124;6.018;2023-07-22T09:25:42;22.00;99.90
47600;DHT22;33323;52.124;6.018;2023-07-22T09:28:10;22.00;99.90
47600;DHT22;33323;52.124;6.018;2023-07-22T09:30:39;22.00;99.90
47600;DHT22;33323;52.124;6.018;2023-07-22T09:33:21;21.90;99.90
47600;DHT22;33323;52.124;6.018;2023-07-22T09:35:49;22.00;99.90
47600;DHT22;33323;52.124;6.018;2023-07-22T09:38:24;21.90;99.90
47600;DHT22;33323;52.124;6.018;2023-07-22T09:40:52;22.00;99.90
47600;DHT22;33323;52.124;6.018;2023-07-22T09:43:22;22.40;99.90
47600;DHT22;33323;52.124;6.018;2023-07-22T09:45:50;22.90;99.90
47600;DHT22;33323;52.124;6.018;2023-07-22T09:48:17;23.10;99.90
47600;DHT22;33323;52.124;6.018;2023-07-22T09:50:45;23.40;99.90
47600;DHT22;33323;52.124;6.018;2023-07-22T09:53:16;23.60;99.90
47600;DHT22;33323;52.124;6.018;2023-07-22T09:55:43;23.10;99.90
47600;DHT22;33323;52.124;6.018;2023-07-22T09:58:11;22.90;99.90
47600;DHT22;33323;52.124;6.018;2023-07-22T10:00:47;22.90;99.90
47600;DHT22;33323;52.124;6.018;2023-07-22T10:03:19;22.80;99.90
47600;DHT22;33323;52.124;6.018;2023-07-22T10:05:48;23.00;99.90
47600;DHT22;33323;52.124;6.018;2023-07-22T10:08:18;22.90;99.90
47600;DHT22;33323;52.124;6.018;2023-07-22T10:10:46;22.60;99.90
47600;DHT22;33323;52.124;6.018;2023-07-22T10:13:15;22.50;99.90
47600;DHT22;33323;52.124;6.018;2023-07-22T10:15:42;22.50;99.90
47600;DHT22;33323;52.124;6.018;2023-07-22T10:18:09;22.60;99.90
47600;DHT22;33323;52.124;6.018;2023-07-22T10:20:38;22.30;99.90
47600;DHT22;33323;52.124;6.018;2023-07-22T10:23:06;22.10;99.90
47600;DHT22;33323;52.124;6.018;2023-07-22T10:25:35;22.00;99.90
47600;DHT22;33323;52.124;6.018;2023-07-22T10:28:06;22.10;99.90
47600;DHT22;33323;52.124;6.018;2023-07-22T10:30:33;21.80;99.90
47600;DHT22;33323;52.124;6.018;2023-07-22T10:33:01;21.50;99.90
47600;DHT22;33323;52.124;6.018;2023-07-22T10:38:15;21.30;99.90
47600;DHT22;33323;52.124;6.018;2023-07-22T10:43:23;21.50;99.90
47600;DHT22;33323;52.124;6.018;2023-07-22T10:45:54;21.50;99.90
47600;DHT22;33323;52.124;6.018;2023-07-22T10:48:25;21.50;99.90
47600;DHT22;33323;52.124;6.018;2023-07-22T10:50:58;21.50;99.90
47600;DHT22;33323;52.124;6.018;2023-07-22T10:53:29;21.60;99.90
47600;DHT22;33323;52.124;6.018;2023-07-22T11:14:50;21.70;99.90
47600;DHT22;33323;52.124;6.018;2023-07-22T11:17:30;21.70;99.90
47600;DHT22;33323;52.124;6.018;2023-07-22T11:20:02;21.60;99.90
47600;DHT22;33323;52.124;6.018;2023-07-22T11:22:29;21.60;99.90
47600;DHT22;33323;52.124;6.018;2023-07-22T11:24:57;21.70;99.90
47600;DHT22;33323;52.124;6.018;2023-07-22T11:27:25;21.70;99.90
47600;DHT22;33323;52.124;6.018;2023-07-22T11:29:52;21.20;99.90
47600;DHT22;33323;52.124;6.018;2023-07-22T11:32:20;21.00;99.90
47600;DHT22;33323;52.124;6.018;2023-07-22T11:34:51;20.70;99.90
47600;DHT22;33323;52.124;6.018;2023-07-22T11:37:19;20.60;99.90
47600;DHT22;33323;52.124;6.018;2023-07-22T11:39:47;20.50;99.90
47600;DHT22;33323;52.124;6.018;2023-07-22T11:42:14;20.30;99.90
47600;DHT22;33323;52.124;6.018;2023-07-22T11:44:42;20.20;99.90
47600;DHT22;33323;52.124;6.018;2023-07-22T11:47:09;20.20;99.90
47600;DHT22;33323;52.124;6.018;2023-07-22T11:49:40;20.30;99.90
47600;DHT22;33323;52.124;6.018;2023-07-22T11:52:10;20.20;99.90
47600;DHT22;33323;52.124;6.018;2023-07-22T11:54:40;20.40;99.90
47600;DHT22;33323;52.124;6.018;2023-07-22T11:57:22;20.40;99.90
47600;DHT22;33323;52.124;6.018;2023-07-22T11:59:52;20.40;99.90
47600;DHT22;33323;52.124;6.018;2023-07-22T12:02:22;20.50;99.90
47600;DHT22;33323;52.124;6.018;2023-07-22T12:04:59;20.60;99.90
47600;DHT22;33323;52.124;6.018;2023-07-22T12:07:30;20.70;99.90
47600;DHT22;33323;52.124;6.018;2023-07-22T12:10:00;20.90;99.90
47600;DHT22;33323;52.124;6.018;2023-07-22T12:12:42;20.90;99.90
47600;DHT22;33323;52.124;6.018;2023-07-22T12:15:12;21.10;99.90
47600;DHT22;33323;52.124;6.018;2023-07-22T12:17:58;21.20;99.90
47600;DHT22;33323;52.124;6.018;2023-07-22T12:20:31;21.10;99.90
47600;DHT22;33323;52.124;6.018;2023-07-22T12:23:00;21.20;99.90
47600;DHT22;33323;52.124;6.018;2023-07-22T12:25:27;21.50;99.90
47600;DHT22;33323;52.124;6.018;2023-07-22T12:27:54;21.70;99.90
47600;DHT22;33323;52.124;6.018;2023-07-22T12:30:21;21.90;99.90
47600;DHT22;33323;52.124;6.018;2023-07-22T12:32:48;21.90;99.90
47600;DHT22;33323;52.124;6.018;2023-07-22T12:35:16;21.90;99.90
47600;DHT22;33323;52.124;6.018;2023-07-22T12:37:43;21.80;99.90
47600;DHT22;33323;52.124;6.018;2023-07-22T12:40:10;21.70;99.90
47600;DHT22;33323;52.124;6.018;2023-07-22T12:42:39;21.70;99.90
47600;DHT22;33323;52.124;6.018;2023-07-22T12:45:07;21.60;99.90
47600;DHT22;33323;52.124;6.018;2023-07-22T12:47:35;21.40;99.90
47600;DHT22;33323;52.124;6.018;2023-07-22T12:50:07;21.00;99.90
47600;DHT22;33323;52.124;6.018;2023-07-22T12:52:35;20.90;99.90
47600;DHT22;33323;52.124;6.018;2023-07-22T12:55:03;20.80;99.90
47600;DHT22;33323;52.124;6.018;2023-07-22T12:57:30;20.70;99.90
47600;DHT22;33323;52.124;6.018;2023-07-22T12:59:57;20.50;99.90
47600;DHT22;33323;52.124;6.018;2023-07-22T13:02:24;20.10;99.90
47600;DHT22;33323;52.124;6.018;2023-07-22T13:04:52;19.70;99.90
47600;DHT22;33323;52.124;6.018;2023-07-22T13:07:20;19.30;99.90
47600;DHT22;33323;52.124;6.018;2023-07-22T13:09:47;19.00;99.90
47600;DHT22;33323;52.124;6.018;2023-07-22T13:12:16;18.60;99.90
47600;DHT22;33323;52.124;6.018;2023-07-22T13:14:43;18.60;99.90
47600;DHT22;33323;52.124;6.018;2023-07-22T13:17:10;18.50;99.90
47600;DHT22;33323;52.124;6.018;2023-07-22T13:19:37;18.40;99.90
47600;DHT22;33323;52.124;6.018;2023-07-22T13:22:04;18.60;99.90
47600;DHT22;33323;52.124;6.018;2023-07-22T13:24:31;18.60;99.90
47600;DHT22;33323;52.124;6.018;2023-07-22T13:26:58;18.80;99.90
47600;DHT22;33323;52.124;6.018;2023-07-22T13:29:25;19.00;99.90
47600;DHT22;33323;52.124;6.018;2023-07-22T13:31:53;19.10;99.90
47600;DHT22;33323;52.124;6.018;2023-07-22T13:34:20;19.30;99.90
47600;DHT22;33323;52.124;6.018;2023-07-22T13:36:47;19.50;99.90
47600;DHT22;33323;52.124;6.018;2023-07-22T13:39:14;19.80;99.90
47600;DHT22;33323;52.124;6.018;2023-07-22T13:41:41;20.00;99.90
47600;DHT22;33323;52.124;6.018;2023-07-22T13:44:09;20.20;99.90
47600;DHT22;33323;52.124;6.018;2023-07-22T13:46:35;20.60;99.90
47600;DHT22;33323;52.124;6.018;2023-07-22T13:49:03;20.90;99.90
47600;DHT22;33323;52.124;6.018;2023-07-22T13:51:31;21.20;99.90
47600;DHT22;33323;52.124;6.018;2023-07-22T13:53:58;21.30;99.90
47600;DHT22;33323;52.124;6.018;2023-07-22T13:56:25;21.40;99.90
47600;DHT22;33323;52.124;6.018;2023-07-22T13:58:54;21.20;99.90
47600;DHT22;33323;52.124;6.018;2023-07-22T14:01:22;21.00;99.90
47600;DHT22;33323;52.124;6.018;2023-07-22T14:03:49;21.20;99.90
47600;DHT22;33323;52.124;6.018;2023-07-22T14:06:16;21.30;99.90
47600;DHT22;33323;52.124;6.018;2023-07-22T14:08:43;21.50;99.90
47600;DHT22;33323;52.124;6.018;2023-07-22T14:11:10;21.50;99.90
47600;DHT22;33323;52.124;6.018;2023-07-22T14:13:38;21.30;99.90
47600;DHT22;33323;52.124;6.018;2023-07-22T14:16:05;21.10;99.90
47600;DHT22;33323;52.124;6.018;2023-07-22T14:18:48;20.90;99.90
47600;DHT22;33323;52.124;6.018;2023-07-22T14:21:15;20.70;99.90
47600;DHT22;33323;52.124;6.018;2023-07-22T14:23:42;20.30;99.90
47600;DHT22;33323;52.124;6.018;2023-07-22T14:26:11;19.90;99.90
47600;DHT22;33323;52.124;6.018;2023-07-22T14:28:38;19.70;99.90
47600;DHT22;33323;52.124;6.018;2023-07-22T14:31:05;19.80;99.90
47600;DHT22;33323;52.124;6.018;2023-07-22T14:33:32;19.70;99.90
47600;DHT22;33323;52.124;6.018;2023-07-22T14:35:59;19.80;99.90
47600;DHT22;33323;52.124;6.018;2023-07-22T14:38:27;19.70;99.90
47600;DHT22;33323;52.124;6.018;2023-07-22T14:40:55;19.80;99.90
47600;DHT22;33323;52.124;6.018;2023-07-22T14:43:22;19.80;99.90
47600;DHT22;33323;52.124;6.018;2023-07-22T14:45:49;19.80;99.90
47600;DHT22;33323;52.124;6.018;2023-07-22T14:48:16;19.70;99.90
47600;DHT22;33323;52.124;6.018;2023-07-22T14:50:43;19.70;99.90
47600;DHT22;33323;52.124;6.018;2023-07-22T14:53:10;19.50;99.90
47600;DHT22;33323;52.124;6.018;2023-07-22T14:55:37;19.50;99.90
47600;DHT22;33323;52.124;6.018;2023-07-22T14:58:04;19.40;99.90
47600;DHT22;33323;52.124;6.018;2023-07-22T15:00:32;19.40;99.90
47600;DHT22;33323;52.124;6.018;2023-07-22T15:02:59;19.40;99.90
47600;DHT22;33323;52.124;6.018;2023-07-22T15:05:26;19.40;99.90
47600;DHT22;33323;52.124;6.018;2023-07-22T15:07:53;19.60;99.90
47600;DHT22;33323;52.124;6.018;2023-07-22T15:10:21;19.70;99.90
47600;DHT22;33323;52.124;6.018;2023-07-22T15:12:48;19.80;99.90
47600;DHT22;33323;52.124;6.018;2023-07-22T15:15:17;19.90;99.90
47600;DHT22;33323;52.124;6.018;2023-07-22T15:17:44;20.10;99.90
47600;DHT22;33323;52.124;6.018;2023-07-22T15:20:12;20.10;99.90
47600;DHT22;33323;52.124;6.018;2023-07-22T15:22:39;20.00;99.90
47600;DHT22;33323;52.124;6.018;2023-07-22T15:25:06;20.10;99.90
47600;DHT22;33323;52.124;6.018;2023-07-22T15:27:33;20.20;99.90
47600;DHT22;33323;52.124;6.018;2023-07-22T15:30:00;20.40;99.90
47600;DHT22;33323;52.124;6.018;2023-07-22T15:32:27;20.40;99.90
47600;DHT22;33323;52.124;6.018;2023-07-22T15:34:56;20.30;99.90
47600;DHT22;33323;52.124;6.018;2023-07-22T15:37:23;20.50;99.90
47600;DHT22;33323;52.124;6.018;2023-07-22T15:39:50;20.50;99.90
47600;DHT22;33323;52.124;6.018;2023-07-22T15:42:17;20.60;99.90
47600;DHT22;33323;52.124;6.018;2023-07-22T15:44:44;20.60;99.90
47600;DHT22;33323;52.124;6.018;2023-07-22T15:47:11;20.60;99.90
47600;DHT22;33323;52.124;6.018;2023-07-22T15:49:39;20.60;99.90
47600;DHT22;33323;52.124;6.018;2023-07-22T15:52:06;20.40;99.90
47600;DHT22;33323;52.124;6.018;2023-07-22T15:54:33;20.40;99.90
47600;DHT22;33323;52.124;6.018;2023-07-22T15:57:01;20.30;99.90
47600;DHT22;33323;52.124;6.018;2023-07-22T15:59:28;20.50;99.90